AirNav   Phillips 66 Aviation Fuel
 
 822 users online  

KCXE Chase City Municipal Airport
Chase City, Virginia, USA

GOING TO CHASE CITY?


FAA INFORMATION EFFECTIVE 11 OCTOBER 2018

Location

FAA Identifier: CXE
Lat/Long: 36-47-18.0080N / 078-30-05.5930W
36-47.300133N / 078-30.093217W
36.7883356 / -78.5015536
(estimated)
Elevation: 503 ft. / 153.3 m (surveyed)
Variation: 09W (2005)
From city: 2 miles W of CHASE CITY, VA
Time zone: UTC -4 (UTC -5 during Standard Time)
Zip code: 23924

Airport Operations

Airport use: Open to the public
Activation date: 09/1952
Control tower: no
ARTCC: WASHINGTON CENTER
FSS: LEESBURG FLIGHT SERVICE STATION
NOTAMs facility: DCA (NOTAM-D service available)
Attendance: UNATTENDED
Pattern altitude: 1303 ft. MSL
Wind indicator: yes
Segmented circle: no

Airport Communications

CTAF: 122.9
WX AWOS-3: 121.225 (434-372-4506)
WX AWOS-3 at W63 (12 nm S): 118.225 (434-374-2431)
WX AWOS-3 at W78 (17 nm W): 119.425 (434-575-0332)
WX AWOS-3 at W31 (18 nm NE): 123.875 (434-676-1078)
  • APCH/DEP SVC PRVDD BY WASHINGTON ARTCC ON FREQS 118.75/353.9 (GREEN BAY RCAG).

Nearby radio navigation aids

VOR radial/distance  VOR name  Freq  Var
SBVr080/25.6SOUTH BOSTON VORTAC110.4005W
LVLr274/28.8LAWRENCEVILLE VORTAC112.9008W

 
NDB name  Hdg/Dist  Freq  Var  ID
JONES305/24.037309WAEA .- . .-
HUNTSBORO020/29.827109WHXO .... -..- ---
BLACKSTONE236/29.932609WBKT -... -.- -
FARMVILLE194/34.036709WFVX ..-. ...- -..-

Airport Services

Parking: tiedowns
Bottled oxygen: NONE
Bulk oxygen: NONE

Runway Information

Runway 18/36

Dimensions: 3400 x 50 ft. / 1036 x 15 m
Surface: asphalt, in poor condition
SEVERE RY CRACKING. 1-2 INCHES IN PLACES AND ALG CNTRLN.
LONGITUDINAL AND TRANSVERSE CRACKING. SOME RAVELING IN CERTAIN AREAS.
Weight bearing capacity: 
Single wheel: 12.5
Runway edge markings: MARKINGS SEVERELY FADED
MARKINGS SEVERELY FADED AND RAVELING.
RUNWAY 18  RUNWAY 36
Latitude: 36-47.578267N36-47.020417N
Longitude: 078-30.125467W078-30.060167W
Elevation: 503.0 ft.486.0 ft.
Gradient: 0.5% DOWN0.5% UP
Traffic pattern: leftleft
Runway heading: 184 magnetic, 175 true004 magnetic, 355 true
Markings: nonprecision, in poor conditionnonprecision, in poor condition
Touchdown point: yes, no lightsyes, no lights
Obstructions: 23 ft. road, 200 ft. from runway, 108 ft. right of centerline
+6' GND; 115'R OF RY END; +20' ROAD 100' FM THR, 125'R.
26 ft. brush, 232 ft. from runway, 125 ft. right of centerline, 1:1 slope to clear
RISING GROUND 150 FT FM END OF RY.

Airport Ownership and Management from official FAA records

Ownership: Publicly-owned
Owner: TOWN OF CHASE CITY
319 N MAIN ST
CHASE CITY, VA 23924
Phone 434-372-5136
Manager: ANGELA LAWRENCE
319 N MAIN ST
CHASE CITY, VA 23924
Phone 434-372-5136
TOWN MANAGER.

Airport Operational Statistics

Aircraft based on the field: 6
Single engine airplanes: 6
    
Aircraft operations: avg 50/week *
77% transient general aviation
23% local general aviation
* for 12-month period ending 31 December 2017

Additional Remarks

DEER ON AND INVOF ARPT.
FARM EQUIPMENT OPERATING NEAR RUNWAY.
ARPT CLSD SS-SR INDEFLY.

Instrument Procedures

NOTE: All procedures below are presented as PDF files. If you need a reader for these files, you should download the free Adobe Reader.

NOT FOR NAVIGATION. Please procure official charts for flight.
FAA instrument procedures published for use from 11 October 2018 at 0901Z to 8 November 2018 at 0900Z.

 
IAPs - Instrument Approach Procedures
RNAV (GPS) RWY 18 **CHANGED**   download (174KB)
RNAV (GPS) RWY 36 **CHANGED**   download (182KB)
NOTE: Special Take-Off Minimums/Departure Procedures apply   download (140KB)

Other nearby airports with instrument procedures:

W63 - Lake Country Regional Airport (12 nm S)
W78 - William M Tuck Airport (17 nm W)
W31 - Lunenburg County Airport (18 nm NE)
KAVC - Mecklenburg-Brunswick Regional Airport (22 nm E)
KHNZ - Henderson-Oxford Airport (26 nm S)
 
Loc | Ops | Rwys | IFR | FBO | Links
Com | Nav | Svcs | Stats | Notes


 
Area around KCXE (Chase City Municipal Airport)
 
Road maps at: MapQuest Bing Google
 
Aerial photo
WARNING: Photo may not be current or correct
Aerial photo of KCXE (Chase City Municipal Airport)
Do you have a better or more recent aerial photo of Chase City Municipal Airport that you would like to share? If so, please send us your photo.

 
Sectional chart

 
Airport distance calculator
Flying to Chase City Municipal Airport? Find the distance to fly.

From to KCXE

Sunrise and sunset
Times for 18-Oct-2018
 Local
(UTC-4)
 Zulu
(UTC)
Morning civil twilight06:5910:59
Sunrise07:2511:25
Sunset18:3322:33
Evening civil twilight18:5922:59

Current date and time
Zulu (UTC)  19-Oct-2018 03:18:47
Local (UTC-4)  18-Oct-2018 23:18:47
 
METAR
KCXE 190255Z AUTO 00000KT 10SM CLR 06/06 A3041 RMK AO1 T00600060
KW63 
12nm S 
190255Z AUTO 00000KT 5SM CLR 06/06 A3041 RMK AO1
KW78 
17nm W 
190250Z AUTO 00000KT 3SM CLR 06/05 A3042 RMK AO1 T00600052
KW31 
18nm NE 
190255Z AUTO 00000KT 10SM CLR 05/05 A3041 RMK AO1 T00490049
TAF
KDAN 
42nm W 
181726Z 1818/1918 VRB03KT P6SM FEW250 FM191600 20005KT P6SM SKC
KLYH 
46nm NW 
181726Z 1818/1918 VRB03KT P6SM SKC FM191500 20005KT P6SM SKC
NOTAMs
Click for the latest NOTAMs
NOTAMs are issued by the DoD/FAA and will open in a separate window not controlled by AirNav.

 

 
 

Would you like to see your business listed on this page?

 If your business provides an interesting product or service to pilots, flight crews, aircraft, or users of the Chase City Municipal Airport, you should consider listing it here.  To start the listing process, click on the button below
 
Add a business
 

Other Pages about Chase City Municipal Airport

www.flyvirginia.com/...
 
Update a link
 
Copyright © AirNav, LLC. All rights reserved. Privacy Policy  Contact